Terminal Aerodrome Forecast
Issued by NWS Sterling, VA

Current Version | Previous Version | Graphics & Text | Print | Product List | Glossary On
Versions: 1 2 3 4 5 6 7 8 9 10 11 12 13 14 15 16 17 18 19 20 21 22 23 24
379
FTUS41 KLWX 080900 AAA
TAFIAD
TAF AMD
KIAD 080900Z 0809/0912 35006KT P6SM OVC150
     FM081700 12005KT P6SM BKN035
     FM082200 11006KT P6SM -RA OVC020
     FM090000 10006KT 3SM -RASN OVC012
     FM090400 08005KT 1SM -SN OVC007=

USA.gov is the U.S. government's official web portal to all federal, state and local government web resources and services.